createdAt,value
2023-06-15T00:00:01.054Z,2.10
2023-06-15T00:02:04.462Z,2.40
2023-06-15T00:04:07.982Z,2.57
2023-06-15T00:06:10.734Z,2.63
2023-06-15T00:08:13.483Z,2.20
2023-06-15T00:10:16.203Z,2.47
2023-06-15T00:12:19.351Z,2.50
2023-06-15T00:14:22.114Z,2.63
2023-06-15T00:16:32.187Z,2.40
2023-06-15T00:18:38.859Z,2.47
2023-06-15T00:20:42.090Z,2.70
2023-06-15T00:22:47.226Z,2.37
2023-06-15T00:24:50.479Z,3.50
2023-06-15T00:26:53.235Z,2.53
2023-06-15T00:28:56.358Z,2.70
2023-06-15T00:30:59.091Z,2.37
2023-06-15T00:33:03.205Z,2.33
2023-06-15T00:35:06.543Z,2.53
2023-06-15T00:37:09.733Z,2.03
2023-06-15T00:39:12.839Z,2.80
2023-06-15T00:41:15.566Z,2.47
2023-06-15T00:43:21.149Z,2.47
2023-06-15T00:45:24.393Z,2.40
2023-06-15T00:47:27.125Z,2.30
2023-06-15T00:49:31.195Z,2.40
2023-06-15T00:51:33.912Z,2.40
2023-06-15T00:53:38.372Z,2.43
2023-06-15T00:55:41.424Z,2.50
2023-06-15T00:57:46.312Z,2.40
2023-06-15T00:59:51.787Z,2.30
2023-06-15T01:01:56.194Z,2.30
2023-06-15T01:04:01.518Z,2.60
2023-06-15T01:06:14.204Z,2.43
2023-06-15T01:08:17.081Z,2.57
2023-06-15T01:10:21.805Z,2.30
2023-06-15T01:12:25.182Z,2.77
2023-06-15T01:14:29.355Z,2.70
2023-06-15T01:16:34.750Z,2.20
2023-06-15T01:18:42.989Z,2.60
2023-06-15T01:20:49.139Z,2.50
2023-06-15T01:22:58.859Z,3.00
2023-06-15T01:25:06.402Z,2.30
2023-06-15T01:27:10.523Z,2.33
2023-06-15T01:29:13.290Z,2.80
2023-06-15T01:31:16.110Z,2.50
2023-06-15T01:33:19.579Z,2.30
2023-06-15T01:35:22.344Z,2.43
2023-06-15T01:37:25.110Z,2.77
2023-06-15T01:39:27.819Z,2.40
2023-06-15T01:41:30.909Z,2.60
2023-06-15T01:43:34.934Z,2.00
2023-06-15T01:45:37.705Z,2.57
2023-06-15T01:47:40.551Z,2.47
2023-06-15T01:49:43.682Z,2.70
2023-06-15T01:51:46.514Z,2.20
2023-06-15T01:53:49.255Z,2.30
2023-06-15T01:55:52.070Z,2.57
2023-06-15T01:57:55.487Z,2.30
2023-06-15T01:59:59.547Z,2.03
2023-06-15T02:02:02.364Z,2.60
2023-06-15T02:04:05.373Z,2.37
2023-06-15T02:06:08.159Z,2.00
2023-06-15T02:08:11.128Z,2.20
2023-06-15T02:10:13.897Z,2.50
2023-06-15T02:12:17.041Z,2.20
2023-06-15T02:14:19.862Z,2.33
2023-06-15T02:16:24.595Z,2.30
2023-06-15T02:18:31.714Z,2.37
2023-06-15T02:20:35.169Z,2.30
2023-06-15T02:22:38.086Z,2.43
2023-06-15T02:24:40.868Z,2.43
2023-06-15T02:26:44.188Z,2.43
2023-06-15T02:28:47.064Z,2.57
2023-06-15T02:30:49.925Z,2.50
2023-06-15T02:32:54.976Z,2.47
2023-06-15T02:34:59.673Z,2.43
2023-06-15T02:37:02.520Z,2.23
2023-06-15T02:39:06.122Z,2.17
2023-06-15T02:41:08.885Z,2.40
2023-06-15T02:43:11.987Z,2.90
2023-06-15T02:45:15.318Z,2.20
2023-06-15T02:47:18.373Z,2.33
2023-06-15T02:49:22.535Z,2.37
2023-06-15T02:51:25.731Z,2.00
2023-06-15T02:53:28.493Z,2.20
2023-06-15T02:55:31.360Z,2.40
2023-06-15T02:57:34.102Z,2.23
2023-06-15T02:59:37.249Z,2.50
2023-06-15T03:01:40.008Z,2.53
2023-06-15T03:03:44.028Z,2.50
2023-06-15T03:05:48.241Z,2.10
2023-06-15T03:07:52.017Z,2.17
2023-06-15T03:09:55.065Z,2.47
2023-06-15T03:11:58.076Z,2.40
2023-06-15T03:14:01.339Z,2.40
2023-06-15T03:16:08.128Z,2.10
2023-06-15T03:18:12.974Z,2.60
2023-06-15T03:20:15.862Z,2.17
2023-06-15T03:22:20.235Z,2.13
2023-06-15T03:24:25.175Z,2.50
2023-06-15T03:26:29.109Z,2.40
2023-06-15T03:28:39.511Z,2.80
2023-06-15T03:30:42.502Z,1.90
2023-06-15T03:32:48.123Z,2.47
2023-06-15T03:34:51.440Z,2.30
2023-06-15T03:36:54.641Z,2.40
2023-06-15T03:38:59.147Z,2.40
2023-06-15T03:41:01.919Z,2.50
2023-06-15T03:43:04.666Z,2.30
2023-06-15T03:45:08.612Z,2.60
2023-06-15T03:47:11.347Z,2.20
2023-06-15T03:49:14.430Z,2.67
2023-06-15T03:51:17.695Z,2.00
2023-06-15T03:53:22.100Z,2.27
2023-06-15T03:55:26.254Z,2.40
2023-06-15T03:57:28.969Z,2.40
2023-06-15T03:59:32.037Z,2.40
2023-06-15T04:01:34.921Z,2.70
2023-06-15T04:03:37.930Z,2.40
2023-06-15T04:05:41.584Z,2.50
2023-06-15T04:07:44.851Z,2.57
2023-06-15T04:09:47.592Z,2.63
2023-06-15T04:11:52.094Z,2.17
2023-06-15T04:13:54.851Z,2.00
2023-06-15T04:16:00.786Z,2.50
2023-06-15T04:18:04.268Z,2.60
2023-06-15T04:20:08.209Z,2.80
2023-06-15T04:22:11.172Z,2.37
2023-06-15T04:24:14.405Z,2.77
2023-06-15T04:26:18.898Z,2.40
2023-06-15T04:28:23.570Z,2.40
2023-06-15T04:30:26.651Z,2.40
2023-06-15T04:32:31.324Z,2.80
2023-06-15T04:34:36.070Z,2.37
2023-06-15T04:36:41.292Z,2.40
2023-06-15T04:38:47.148Z,2.70
2023-06-15T04:40:50.036Z,2.53
2023-06-15T04:42:53.238Z,2.20
2023-06-15T04:44:57.680Z,2.20
2023-06-15T04:47:01.621Z,2.10
2023-06-15T04:49:04.438Z,2.50
2023-06-15T04:51:07.157Z,2.63
2023-06-15T04:53:10.197Z,2.30
2023-06-15T04:55:13.175Z,2.40
2023-06-15T04:57:15.928Z,2.80
2023-06-15T04:59:18.700Z,2.40
2023-06-15T05:01:23.108Z,2.87
2023-06-15T05:03:26.092Z,2.60
2023-06-15T05:05:29.005Z,2.63
2023-06-15T05:07:31.717Z,2.40
2023-06-15T05:09:34.921Z,2.50
2023-06-15T05:11:40.068Z,2.50
2023-06-15T05:13:43.823Z,2.50
2023-06-15T05:15:47.084Z,2.57
2023-06-15T05:17:51.255Z,2.43
2023-06-15T05:19:54.167Z,2.53
2023-06-15T05:21:59.809Z,2.53
2023-06-15T05:24:02.756Z,2.20
2023-06-15T05:26:11.423Z,2.10
2023-06-15T05:28:25.099Z,2.77
2023-06-15T05:30:29.558Z,2.50
2023-06-15T05:32:36.200Z,2.40
2023-06-15T05:34:40.324Z,2.23
2023-06-15T05:36:55.165Z,2.70
2023-06-15T05:38:59.246Z,2.27
2023-06-15T05:41:04.529Z,2.20
2023-06-15T05:43:07.250Z,2.63
2023-06-15T05:45:10.700Z,2.67
2023-06-15T05:47:13.806Z,2.80
2023-06-15T05:49:16.919Z,2.60
2023-06-15T05:51:21.522Z,2.23
2023-06-15T05:53:24.268Z,2.30
2023-06-15T05:55:27.192Z,2.60
2023-06-15T05:57:30.349Z,2.40
2023-06-15T05:59:34.361Z,2.70
2023-06-15T06:01:37.557Z,2.67
2023-06-15T06:03:40.364Z,2.73
2023-06-15T06:05:43.089Z,2.60
2023-06-15T06:07:47.982Z,2.50
2023-06-15T06:09:51.251Z,2.70
2023-06-15T06:11:53.997Z,2.60
2023-06-15T06:13:56.740Z,3.00
2023-06-15T06:15:59.514Z,2.30
2023-06-15T06:18:09.000Z,2.57
2023-06-15T06:20:13.135Z,2.57
2023-06-15T06:22:16.083Z,2.67
2023-06-15T06:24:23.492Z,2.30
2023-06-15T06:26:27.474Z,2.47
2023-06-15T06:28:30.482Z,2.57
2023-06-15T06:30:33.529Z,2.50
2023-06-15T06:32:36.809Z,2.93
2023-06-15T06:34:40.146Z,3.03
2023-06-15T06:36:42.893Z,2.57
2023-06-15T06:38:57.378Z,2.60
2023-06-15T06:41:06.820Z,2.40
2023-06-15T06:43:09.537Z,2.10
2023-06-15T06:45:12.389Z,2.70
2023-06-15T06:47:15.725Z,2.43
2023-06-15T06:49:18.451Z,2.77
2023-06-15T06:51:21.280Z,2.60
2023-06-15T06:53:24.060Z,2.70
2023-06-15T06:55:27.537Z,3.03
2023-06-15T06:57:32.344Z,2.57
2023-06-15T06:59:43.376Z,2.57
2023-06-15T07:01:47.835Z,2.50
2023-06-15T07:03:51.671Z,2.50
2023-06-15T07:05:55.578Z,3.17
2023-06-15T07:07:59.911Z,2.97
2023-06-15T07:10:04.031Z,2.87
2023-06-15T07:12:08.639Z,2.70
2023-06-15T07:14:13.562Z,3.10
2023-06-15T07:16:17.680Z,2.93
2023-06-15T07:18:21.429Z,2.63
2023-06-15T07:20:25.122Z,3.07
2023-06-15T07:22:29.808Z,2.90
2023-06-15T07:24:33.891Z,2.80
2023-06-15T07:26:37.327Z,2.53
2023-06-15T07:28:41.507Z,2.57
2023-06-15T07:30:47.925Z,2.60
2023-06-15T07:32:51.827Z,2.83
2023-06-15T07:34:56.176Z,2.50
2023-06-15T07:37:00.051Z,2.77
2023-06-15T07:39:04.111Z,2.60
2023-06-15T07:41:08.435Z,2.57
2023-06-15T07:43:12.949Z,2.90
2023-06-15T07:45:16.861Z,2.50
2023-06-15T07:47:22.612Z,2.83
2023-06-15T07:49:40.595Z,2.90
2023-06-15T07:51:58.931Z,2.83
2023-06-15T07:54:11.388Z,2.10
2023-06-15T07:56:15.585Z,2.80
2023-06-15T07:58:19.167Z,2.77
2023-06-15T08:00:23.886Z,2.87
2023-06-15T08:02:29.591Z,2.77
2023-06-15T08:04:33.903Z,2.50
2023-06-15T08:06:37.972Z,2.50
2023-06-15T08:08:42.313Z,2.57
2023-06-15T08:10:48.045Z,2.50
2023-06-15T08:12:52.072Z,2.70
2023-06-15T08:14:55.961Z,2.50
2023-06-15T08:17:00.382Z,2.13
2023-06-15T08:19:05.191Z,2.50
2023-06-15T08:21:08.596Z,2.33
2023-06-15T08:23:12.927Z,2.40
2023-06-15T08:25:17.140Z,2.40
2023-06-15T08:27:20.692Z,2.30
2023-06-15T08:29:24.852Z,2.80
2023-06-15T08:31:28.947Z,2.60
2023-06-15T08:33:32.346Z,2.40
2023-06-15T08:35:36.388Z,2.57
2023-06-15T08:37:39.622Z,2.70
2023-06-15T08:39:44.126Z,2.83
2023-06-15T08:41:49.684Z,2.03
2023-06-15T08:43:52.448Z,2.70
2023-06-15T08:45:56.196Z,2.17
2023-06-15T08:47:58.985Z,2.57
2023-06-15T08:50:01.753Z,2.73
2023-06-15T08:52:06.740Z,2.23
2023-06-15T08:54:11.246Z,2.70
2023-06-15T08:56:14.058Z,2.60
2023-06-15T08:58:17.403Z,2.47
2023-06-15T09:00:21.610Z,2.23
2023-06-15T09:02:26.950Z,2.60
2023-06-15T09:04:45.114Z,2.20
2023-06-15T09:06:48.420Z,2.83
2023-06-15T09:08:55.710Z,2.60
2023-06-15T09:11:07.605Z,2.20
2023-06-15T09:13:16.516Z,2.40
2023-06-15T09:15:22.503Z,2.60
2023-06-15T09:17:28.922Z,2.40
2023-06-15T09:19:38.182Z,2.60
2023-06-15T09:21:43.272Z,2.70
2023-06-15T09:23:47.418Z,2.30
2023-06-15T09:25:54.085Z,2.37
2023-06-15T09:27:57.613Z,2.70
2023-06-15T09:30:03.934Z,2.43
2023-06-15T09:32:07.997Z,2.43
2023-06-15T09:34:11.678Z,2.50
2023-06-15T09:36:15.131Z,2.43
2023-06-15T09:38:22.142Z,2.47
2023-06-15T09:40:26.810Z,2.90
2023-06-15T09:42:30.848Z,2.47
2023-06-15T09:44:35.365Z,2.30
2023-06-15T09:46:39.813Z,2.70
2023-06-15T09:48:44.176Z,2.40
2023-06-15T09:50:51.428Z,2.43
2023-06-15T09:52:54.633Z,2.90
2023-06-15T09:54:57.926Z,2.60
2023-06-15T09:57:02.483Z,2.63
2023-06-15T09:59:06.782Z,2.30
2023-06-15T10:01:11.306Z,2.40
2023-06-15T10:03:21.312Z,2.37
2023-06-15T10:05:28.798Z,2.23
2023-06-15T10:07:33.842Z,2.50
2023-06-15T10:09:41.047Z,2.60
2023-06-15T10:11:45.651Z,2.37
2023-06-15T10:13:52.374Z,2.57
2023-06-15T10:15:57.033Z,2.40
2023-06-15T10:18:00.286Z,2.53
2023-06-15T10:20:09.918Z,2.37
2023-06-15T10:22:17.028Z,2.53
2023-06-15T10:24:22.102Z,2.83
2023-06-15T10:26:27.404Z,2.57
2023-06-15T10:28:31.845Z,1.97
2023-06-15T10:30:43.201Z,2.40
2023-06-15T10:32:49.910Z,2.10
2023-06-15T10:34:54.558Z,2.43
2023-06-15T10:37:06.669Z,2.80
2023-06-15T10:39:22.355Z,2.57
2023-06-15T10:41:25.127Z,2.23
2023-06-15T10:43:29.033Z,3.13
2023-06-15T10:45:32.938Z,2.33
2023-06-15T10:47:35.950Z,2.60
2023-06-15T10:49:49.338Z,2.30
2023-06-15T10:51:55.700Z,2.53
2023-06-15T10:53:59.035Z,2.40
2023-06-15T10:56:02.112Z,2.20
2023-06-15T10:58:15.913Z,2.50
2023-06-15T11:00:26.152Z,2.50
2023-06-15T11:02:51.097Z,2.70
2023-06-15T11:04:55.565Z,2.53
2023-06-15T11:07:00.709Z,2.00
2023-06-15T11:09:08.804Z,2.33
2023-06-15T11:11:13.118Z,2.67
2023-06-15T11:13:15.940Z,2.73
2023-06-15T11:15:19.040Z,2.60
2023-06-15T11:17:22.805Z,2.47
2023-06-15T11:19:27.147Z,2.30
2023-06-15T11:21:31.586Z,1.83
2023-06-15T11:23:35.272Z,2.10
2023-06-15T11:25:38.425Z,2.70
2023-06-15T11:27:46.283Z,1.93
2023-06-15T11:29:49.084Z,2.37
2023-06-15T11:31:52.013Z,2.43
2023-06-15T11:33:54.882Z,2.20
2023-06-15T11:36:02.447Z,2.20
2023-06-15T11:38:09.546Z,2.03
2023-06-15T11:40:13.453Z,2.80
2023-06-15T11:42:16.583Z,2.40
2023-06-15T11:44:20.560Z,2.33
2023-06-15T11:46:24.452Z,2.40
2023-06-15T11:48:27.368Z,2.13
2023-06-15T11:50:30.502Z,2.63
2023-06-15T11:52:33.454Z,2.53
2023-06-15T11:54:51.549Z,2.20
2023-06-15T11:56:58.507Z,2.20
2023-06-15T11:59:01.434Z,2.23
2023-06-15T12:01:04.948Z,2.33
2023-06-15T12:03:13.513Z,2.40
2023-06-15T12:05:20.501Z,2.17
2023-06-15T12:07:37.067Z,2.10
2023-06-15T12:09:42.598Z,2.20
2023-06-15T12:11:45.509Z,2.30
2023-06-15T12:13:48.235Z,2.60
2023-06-15T12:15:52.168Z,2.40
2023-06-15T12:17:56.363Z,2.20
2023-06-15T12:20:01.586Z,2.50
2023-06-15T12:22:04.660Z,1.90
2023-06-15T12:24:14.194Z,1.90
2023-06-15T12:26:21.278Z,1.93
2023-06-15T12:28:26.595Z,2.30
2023-06-15T12:30:30.073Z,2.10
2023-06-15T12:32:33.113Z,2.00
2023-06-15T12:34:37.136Z,2.27
2023-06-15T12:36:40.984Z,2.17
2023-06-15T12:38:48.122Z,2.20
2023-06-15T12:40:51.057Z,2.00
2023-06-15T12:43:01.100Z,2.23
2023-06-15T12:45:04.086Z,1.90
2023-06-15T12:47:07.949Z,2.13
2023-06-15T12:49:12.293Z,2.10
2023-06-15T12:51:15.341Z,1.97
2023-06-15T12:53:18.949Z,2.00
2023-06-15T12:55:23.460Z,2.33
2023-06-15T12:57:27.040Z,1.77
2023-06-15T12:59:32.087Z,2.20
2023-06-15T13:01:35.758Z,2.10
2023-06-15T13:03:40.015Z,1.80
2023-06-15T13:05:49.447Z,1.90
2023-06-15T13:07:52.759Z,2.10
2023-06-15T13:09:55.759Z,2.07
2023-06-15T13:11:58.932Z,2.30
2023-06-15T13:14:01.685Z,1.77
2023-06-15T13:16:07.431Z,1.83
2023-06-15T13:18:10.270Z,2.00
2023-06-15T13:20:14.337Z,2.00
2023-06-15T13:22:17.611Z,1.77
2023-06-15T13:24:23.255Z,1.70
2023-06-15T13:26:31.099Z,2.03
2023-06-15T13:28:35.294Z,2.20
2023-06-15T13:30:38.201Z,2.07
2023-06-15T13:32:44.922Z,2.20
2023-06-15T13:34:47.812Z,1.97
2023-06-15T13:36:50.596Z,2.23
2023-06-15T13:38:54.150Z,2.70
2023-06-15T13:40:59.691Z,2.17
2023-06-15T13:43:06.253Z,2.20
2023-06-15T13:45:10.725Z,2.00
2023-06-15T13:47:15.464Z,2.10
2023-06-15T13:49:19.482Z,2.23
2023-06-15T13:51:22.239Z,2.23
2023-06-15T13:53:25.294Z,1.97
2023-06-15T13:55:28.357Z,2.30
2023-06-15T13:57:31.127Z,2.40
2023-06-15T13:59:35.848Z,2.23
2023-06-15T14:01:38.697Z,2.50
2023-06-15T14:03:42.521Z,2.23
2023-06-15T14:05:46.807Z,2.00
2023-06-15T14:07:49.663Z,1.80
2023-06-15T14:09:52.433Z,1.93
2023-06-15T14:11:58.741Z,2.77
2023-06-15T14:14:01.896Z,1.87
2023-06-15T14:16:04.954Z,2.10
2023-06-15T14:18:08.253Z,1.90
2023-06-15T14:20:11.832Z,2.07
2023-06-15T14:22:16.392Z,1.87
2023-06-15T14:24:21.693Z,2.10
2023-06-15T14:26:24.618Z,2.10
2023-06-15T14:28:27.595Z,2.50
2023-06-15T14:30:33.141Z,2.30
2023-06-15T14:32:36.212Z,1.93
2023-06-15T14:34:39.360Z,2.20
2023-06-15T14:36:42.288Z,2.10
2023-06-15T14:38:46.369Z,2.33
2023-06-15T14:40:50.902Z,1.60
2023-06-15T14:42:53.839Z,2.20
2023-06-15T14:44:56.832Z,2.10
2023-06-15T14:46:59.922Z,2.10
2023-06-15T14:49:03.286Z,2.23
2023-06-15T14:51:06.022Z,2.37
2023-06-15T14:53:08.745Z,2.23
2023-06-15T14:55:13.308Z,2.37
2023-06-15T14:57:16.272Z,2.27
2023-06-15T14:59:18.992Z,2.20
2023-06-15T15:01:23.174Z,2.00
2023-06-15T15:03:26.418Z,2.20
2023-06-15T15:05:29.310Z,1.80
2023-06-15T15:07:32.211Z,2.30
2023-06-15T15:09:35.296Z,1.93
2023-06-15T15:11:39.635Z,2.20
2023-06-15T15:13:42.350Z,2.57
2023-06-15T15:15:45.560Z,2.40
2023-06-15T15:17:48.314Z,2.33
2023-06-15T15:19:51.196Z,1.83
2023-06-15T15:21:54.440Z,2.10
2023-06-15T15:23:57.637Z,2.27
2023-06-15T15:26:01.095Z,2.00
2023-06-15T15:28:05.785Z,2.00
2023-06-15T15:30:09.998Z,1.90
2023-06-15T15:32:12.929Z,1.67
2023-06-15T15:34:15.663Z,2.10
2023-06-15T15:36:19.309Z,2.23
2023-06-15T15:38:22.474Z,1.67
2023-06-15T15:40:25.570Z,2.20
2023-06-15T15:42:29.091Z,1.83
2023-06-15T15:44:33.197Z,2.00
2023-06-15T15:46:36.011Z,2.13
2023-06-15T15:48:39.250Z,2.00
2023-06-15T15:50:42.453Z,1.90
2023-06-15T15:52:45.278Z,1.87
2023-06-15T15:54:49.057Z,2.33
2023-06-15T15:56:52.034Z,2.10
2023-06-15T15:58:54.834Z,2.00
2023-06-15T16:00:59.280Z,1.90
2023-06-15T16:03:02.105Z,2.27
2023-06-15T16:05:07.576Z,2.03
2023-06-15T16:07:10.472Z,1.97
2023-06-15T16:09:13.675Z,2.10
2023-06-15T16:11:16.420Z,2.33
2023-06-15T16:13:19.188Z,2.43
2023-06-15T16:15:22.468Z,2.30
2023-06-15T16:17:26.644Z,2.03
2023-06-15T16:19:29.358Z,2.70
2023-06-15T16:21:32.717Z,2.60
2023-06-15T16:23:35.470Z,2.10
2023-06-15T16:25:38.202Z,2.10
2023-06-15T16:27:44.582Z,2.40
2023-06-15T16:29:47.711Z,2.37
2023-06-15T16:31:50.913Z,2.50
2023-06-15T16:33:55.313Z,2.37
2023-06-15T16:35:58.302Z,2.83
2023-06-15T16:38:01.103Z,2.50
2023-06-15T16:40:05.552Z,2.63
2023-06-15T16:42:11.083Z,2.60
2023-06-15T16:44:13.873Z,2.67
2023-06-15T16:46:16.934Z,2.33
2023-06-15T16:48:20.250Z,2.30
2023-06-15T16:50:24.538Z,2.10
2023-06-15T16:52:27.443Z,2.37
2023-06-15T16:54:30.880Z,2.40
2023-06-15T16:56:33.652Z,2.60
2023-06-15T16:58:36.372Z,2.60
2023-06-15T17:00:39.819Z,2.57
2023-06-15T17:02:43.162Z,2.80
2023-06-15T17:04:46.629Z,2.57
2023-06-15T17:06:51.287Z,3.20
2023-06-15T17:08:54.640Z,2.30
2023-06-15T17:10:57.697Z,2.83
2023-06-15T17:13:00.797Z,3.00
2023-06-15T17:15:06.333Z,3.03
2023-06-15T17:17:09.245Z,2.93
2023-06-15T17:19:12.508Z,3.27
2023-06-15T17:21:15.401Z,2.80
2023-06-15T17:23:23.953Z,3.10
2023-06-15T17:25:27.626Z,3.00
2023-06-15T17:27:30.830Z,2.77
2023-06-15T17:29:36.089Z,3.30
2023-06-15T17:31:38.992Z,3.00
2023-06-15T17:33:42.379Z,2.77
2023-06-15T17:35:45.979Z,3.40
2023-06-15T17:37:48.752Z,2.83
2023-06-15T17:39:52.936Z,3.17
2023-06-15T17:41:55.880Z,3.10
2023-06-15T17:43:59.107Z,3.10
2023-06-15T17:46:02.352Z,3.10
2023-06-15T17:48:05.251Z,2.47
2023-06-15T17:50:10.579Z,2.97
2023-06-15T17:52:13.762Z,3.10
2023-06-15T17:54:16.732Z,3.60
2023-06-15T17:56:21.160Z,3.10
2023-06-15T17:58:24.553Z,2.70
2023-06-15T18:00:28.414Z,3.10
2023-06-15T18:02:33.049Z,3.40
2023-06-15T18:04:39.551Z,2.63
2023-06-15T18:06:42.637Z,3.20
2023-06-15T18:08:46.134Z,2.83
2023-06-15T18:10:49.169Z,3.10
2023-06-15T18:12:53.619Z,3.43
2023-06-15T18:15:01.466Z,3.30
2023-06-15T18:17:08.742Z,3.27
2023-06-15T18:19:11.781Z,3.40
2023-06-15T18:21:14.521Z,3.17
2023-06-15T18:23:17.406Z,3.23
2023-06-15T18:25:20.429Z,2.83
2023-06-15T18:27:23.312Z,3.30
2023-06-15T18:29:27.340Z,3.00
2023-06-15T18:31:30.517Z,3.00
2023-06-15T18:33:33.320Z,2.90
2023-06-15T18:35:36.249Z,2.97
2023-06-15T18:37:40.137Z,2.80
2023-06-15T18:39:43.573Z,2.80
2023-06-15T18:41:46.542Z,3.27
2023-06-15T18:43:49.526Z,3.20
2023-06-15T18:45:53.957Z,3.30
2023-06-15T18:47:57.137Z,2.80
2023-06-15T18:50:00.151Z,2.93
2023-06-15T18:52:04.598Z,2.80
2023-06-15T18:54:16.466Z,2.97
2023-06-15T18:56:19.414Z,3.00
2023-06-15T18:58:22.197Z,3.20
2023-06-15T19:00:25.031Z,3.13
2023-06-15T19:02:29.570Z,3.00
2023-06-15T19:04:32.485Z,2.80
2023-06-15T19:06:35.305Z,3.47
2023-06-15T19:08:41.412Z,3.30
2023-06-15T19:10:44.790Z,2.80
2023-06-15T19:12:48.036Z,3.10
2023-06-15T19:14:52.108Z,2.80
2023-06-15T19:16:54.969Z,2.87
2023-06-15T19:18:59.388Z,2.77
2023-06-15T19:21:03.447Z,2.80
2023-06-15T19:23:07.307Z,2.70
2023-06-15T19:25:10.587Z,3.60
2023-06-15T19:27:14.004Z,3.10
2023-06-15T19:29:17.046Z,3.20
2023-06-15T19:31:20.129Z,3.07
2023-06-15T19:33:22.893Z,2.70
2023-06-15T19:35:30.511Z,3.00
2023-06-15T19:37:33.307Z,2.80
2023-06-15T19:39:36.509Z,3.10
2023-06-15T19:41:39.418Z,3.07
2023-06-15T19:43:42.321Z,2.90
2023-06-15T19:45:49.469Z,3.13
2023-06-15T19:47:53.274Z,3.20
2023-06-15T19:49:56.240Z,2.63
2023-06-15T19:52:00.729Z,2.97
2023-06-15T19:54:03.552Z,2.70
2023-06-15T19:56:08.098Z,2.70
2023-06-15T19:58:10.949Z,3.40
2023-06-15T20:00:14.164Z,3.07
2023-06-15T20:02:17.515Z,2.77
2023-06-15T20:04:20.659Z,2.87
2023-06-15T20:06:23.704Z,3.17
2023-06-15T20:08:27.876Z,3.13
2023-06-15T20:10:30.622Z,3.00
2023-06-15T20:12:35.276Z,3.00
2023-06-15T20:14:38.017Z,3.00
2023-06-15T20:16:41.613Z,3.07
2023-06-15T20:18:46.289Z,3.37
2023-06-15T20:20:49.028Z,3.33
2023-06-15T20:22:52.510Z,2.90
2023-06-15T20:24:57.680Z,3.20
2023-06-15T20:27:01.114Z,3.20
2023-06-15T20:29:04.064Z,3.03
2023-06-15T20:31:07.682Z,2.80
2023-06-15T20:33:11.026Z,2.60
2023-06-15T20:35:15.083Z,2.77
2023-06-15T20:37:18.437Z,3.00
2023-06-15T20:39:21.346Z,3.37
2023-06-15T20:41:26.143Z,3.30
2023-06-15T20:43:29.094Z,3.13
2023-06-15T20:45:34.408Z,3.50
2023-06-15T20:47:37.691Z,2.60
2023-06-15T20:49:42.344Z,3.03
2023-06-15T20:51:45.178Z,2.83
2023-06-15T20:53:47.924Z,3.20
2023-06-15T20:55:51.040Z,3.13
2023-06-15T20:57:55.097Z,3.07
2023-06-15T20:59:58.071Z,3.10
2023-06-15T21:02:02.152Z,3.30
2023-06-15T21:04:05.613Z,2.73
2023-06-15T21:06:08.501Z,3.00
2023-06-15T21:08:12.009Z,3.10
2023-06-15T21:10:15.394Z,2.87
2023-06-15T21:12:19.536Z,3.07
2023-06-15T21:14:24.265Z,3.30
2023-06-15T21:16:28.827Z,3.07
2023-06-15T21:18:33.314Z,2.77
2023-06-15T21:20:38.473Z,3.00
2023-06-15T21:22:41.651Z,2.67
2023-06-15T21:24:45.045Z,3.10
2023-06-15T21:26:57.017Z,2.90
2023-06-15T21:28:59.919Z,3.50
2023-06-15T21:31:04.370Z,3.60
2023-06-15T21:33:08.409Z,3.10
2023-06-15T21:35:11.402Z,3.40
2023-06-15T21:37:14.371Z,3.87
2023-06-15T21:39:21.674Z,3.20
2023-06-15T21:41:29.581Z,3.20
2023-06-15T21:43:32.328Z,3.10
2023-06-15T21:45:35.459Z,3.40
2023-06-15T21:47:39.998Z,3.07
2023-06-15T21:49:42.766Z,3.33
2023-06-15T21:51:45.523Z,3.03
2023-06-15T21:53:48.256Z,2.80
2023-06-15T21:55:51.342Z,3.20
2023-06-15T21:57:54.191Z,2.77
2023-06-15T21:59:57.092Z,2.70
2023-06-15T22:02:00.304Z,3.30
2023-06-15T22:04:05.999Z,3.07
2023-06-15T22:06:09.271Z,2.70
2023-06-15T22:08:13.416Z,3.43
2023-06-15T22:10:17.098Z,3.10
2023-06-15T22:12:22.025Z,2.83
2023-06-15T22:14:25.453Z,2.97
2023-06-15T22:16:30.459Z,3.10
2023-06-15T22:18:34.556Z,2.97
2023-06-15T22:20:38.639Z,3.43
2023-06-15T22:22:42.245Z,2.77
2023-06-15T22:24:46.439Z,3.40
2023-06-15T22:26:49.709Z,3.20
2023-06-15T22:28:52.437Z,3.00
2023-06-15T22:30:55.700Z,3.00
2023-06-15T22:32:58.531Z,3.00
2023-06-15T22:35:01.817Z,2.77
2023-06-15T22:37:08.097Z,3.00
2023-06-15T22:39:11.474Z,3.13
2023-06-15T22:41:14.343Z,2.90
2023-06-15T22:43:17.740Z,2.90
2023-06-15T22:45:21.026Z,3.27
2023-06-15T22:47:27.051Z,2.60
2023-06-15T22:49:30.045Z,2.70
2023-06-15T22:51:41.053Z,3.20
2023-06-15T22:53:45.180Z,3.33
2023-06-15T22:55:47.918Z,3.40
2023-06-15T22:57:52.060Z,3.13
2023-06-15T22:59:56.229Z,3.10
2023-06-15T23:02:00.205Z,2.80
2023-06-15T23:04:04.499Z,2.93
2023-06-15T23:06:08.845Z,3.20
2023-06-15T23:08:12.038Z,2.97
2023-06-15T23:10:21.392Z,3.10
2023-06-15T23:12:26.257Z,3.03
2023-06-15T23:14:31.951Z,3.27
2023-06-15T23:16:37.770Z,3.47
2023-06-15T23:18:41.393Z,3.43
2023-06-15T23:20:45.483Z,3.40
2023-06-15T23:22:53.151Z,3.03
2023-06-15T23:24:57.719Z,3.40
2023-06-15T23:27:02.197Z,2.90
2023-06-15T23:29:05.128Z,3.17
2023-06-15T23:31:08.590Z,3.30
2023-06-15T23:33:11.684Z,2.70
2023-06-15T23:35:14.432Z,3.03
2023-06-15T23:37:17.159Z,3.00
2023-06-15T23:39:19.965Z,2.70
2023-06-15T23:41:23.955Z,2.83
2023-06-15T23:43:28.018Z,2.70
2023-06-15T23:45:30.842Z,3.00
2023-06-15T23:47:33.662Z,3.13
2023-06-15T23:49:36.907Z,3.33
2023-06-15T23:51:39.660Z,3.20
2023-06-15T23:53:42.725Z,3.03
2023-06-15T23:55:45.501Z,3.53
2023-06-15T23:57:48.512Z,3.60
2023-06-15T23:59:52.577Z,2.90
